Elwood, Iowa
Current Conditions -  °F | °C
As of 2:15 AM on Monday 22 Dec 2014 (Local Time) from KCWI Reporting Station
Overcast Overcast  
Wind Chill: 25°   Ceiling: 6000
Heat Index: 34°   Visibility: 5mi
Dew Point: 30°   Wind: 12mph
Humidity: 87%   Direction: 140°SE
Pressure: 29.9"   Gusts: NA
Location:  41.99°N, 90.74°W
Report Text: KCWI 220815Z AUTO 14010KT 5SM SCT033 OVC060 01/M01 A2990 RMK AO1
Loading
Personal Weather Stations






























Interactive Weather Map New forecast layout! Learn more

10-Day Weather Forecast

Advertisements
Track Severe Weather on mobile